Time;durP1;ratioP1;P1;durP2;ratioP2;P2;SDS_P1;SDS_P2;PMS_P1;PMS_P2;Temp;Humidity;BMP_temperature;BMP_pressure;BME280_temperature;BME280_humidity;BME280_pressure;Samples;Min_cycle;Max_cycle;Signal;HPM_P1;HPM_P2
2022/05/04 00:01:37;;;;;;;21.77;11.77;;;;;;;7.26;100.00;94816.66;5017026;28;20200;-81
2022/05/04 00:04:06;;;;;;;16.93;10.57;;;;;;;7.24;100.00;94816.84;5015029;28;20220;-81
2022/05/04 00:06:33;;;;;;;21.30;12.07;;;;;;;7.20;100.00;94814.84;5026726;28;20199;-81
2022/05/04 00:08:59;;;;;;;18.97;10.37;;;;;;;7.17;100.00;94812.66;5024143;28;20202;-81
2022/05/04 00:11:28;;;;;;;20.47;11.23;;;;;;;7.17;100.00;94817.81;5017476;28;20199;-81
2022/05/04 00:13:55;;;;;;;21.60;12.20;;;;;;;6.74;100.00;94812.84;5018980;28;20246;-82
2022/05/04 00:16:22;;;;;;;19.90;11.77;;;;;;;6.38;100.00;94809.63;5023142;28;20208;-83
2022/05/04 00:18:49;;;;;;;23.77;12.47;;;;;;;6.25;100.00;94806.97;5026667;28;20305;-81
2022/05/04 00:21:16;;;;;;;20.43;12.57;;;;;;;6.35;100.00;94809.22;5021147;28;20547;-81
2022/05/04 00:23:43;;;;;;;21.60;12.83;;;;;;;6.45;100.00;94807.88;5026375;28;20225;-81
2022/05/04 00:26:10;;;;;;;21.13;12.83;;;;;;;6.52;100.00;94807.94;5026590;28;20589;-81
2022/05/04 00:28:38;;;;;;;18.03;12.03;;;;;;;6.58;100.00;94817.53;5025840;28;20205;-81
2022/05/04 00:31:04;;;;;;;18.80;11.33;;;;;;;6.64;100.00;94811.56;5021144;28;20210;-83
2022/05/04 00:33:31;;;;;;;17.70;10.87;;;;;;;6.74;100.00;94817.22;5023495;28;20206;-82
2022/05/04 00:35:58;;;;;;;22.70;12.00;;;;;;;6.79;100.00;94818.22;5023666;28;20672;-83
2022/05/04 00:38:25;;;;;;;22.10;11.60;;;;;;;6.79;100.00;94818.22;5030160;28;20225;-82
2022/05/04 00:40:52;;;;;;;32.27;17.23;;;;;;;6.84;100.00;94809.91;5017510;28;20215;-82
2022/05/04 00:43:23;;;;;;;58.03;27.20;;;;;;;6.92;100.00;94829.63;5023505;28;20214;-84
2022/05/04 00:45:52;;;;;;;61.17;30.10;;;;;;;6.83;100.00;94808.31;5030500;28;20689;-83
2022/05/04 00:48:19;;;;;;;60.87;28.90;;;;;;;6.93;100.00;94824.25;5024620;28;20230;-84
2022/05/04 00:50:49;;;;;;;45.40;22.30;;;;;;;6.94;100.00;94836.19;5029970;28;20198;-85
2022/05/04 00:53:17;;;;;;;43.10;20.97;;;;;;;6.90;100.00;94834.97;5018245;28;20601;-84
2022/05/04 00:55:45;;;;;;;40.03;19.10;;;;;;;6.88;100.00;94841.31;5015749;28;20202;-83
2022/05/04 01:01:01;;;;;;;41.67;19.07;;;;;;;6.86;100.00;94833.78;5020520;28;20680;-84
2022/05/04 01:03:28;;;;;;;39.53;19.47;;;;;;;6.87;100.00;94845.69;5011199;28;20202;-83
2022/05/04 01:05:55;;;;;;;40.50;20.10;;;;;;;6.82;100.00;94843.69;5010492;28;20227;-83
2022/05/04 01:08:22;;;;;;;38.20;19.00;;;;;;;6.75;100.00;94829.13;5017233;28;20207;-84
2022/05/04 01:10:49;;;;;;;41.10;19.53;;;;;;;6.77;100.00;94843.47;5024238;28;20204;-83
2022/05/04 01:13:19;;;;;;;43.60;20.40;;;;;;;6.76;100.00;94839.28;5020791;28;20194;-85
2022/05/04 01:15:47;;;;;;;35.40;18.43;;;;;;;6.74;100.00;94840.44;5030755;28;20218;-84
2022/05/04 01:18:17;;;;;;;30.17;15.10;;;;;;;6.62;100.00;94834.22;5030482;28;20262;-84
2022/05/04 01:20:44;;;;;;;29.17;16.00;;;;;;;6.58;100.00;94841.53;5030383;28;20601;-85
2022/05/04 01:23:13;;;;;;;23.13;15.30;;;;;;;6.41;100.00;94824.72;5030836;28;20213;-86
2022/05/04 01:25:40;;;;;;;24.47;15.00;;;;;;;6.53;100.00;94837.91;5022878;28;20231;-85
2022/05/04 01:28:07;;;;;;;28.23;15.57;;;;;;;6.30;100.00;94825.25;5024004;28;20206;-85
2022/05/04 01:30:52;;;;;;;24.80;15.33;;;;;;;5.96;100.00;94832.91;5033665;28;20213;-84
2022/05/04 01:33:19;;;;;;;24.73;14.63;;;;;;;5.46;100.00;94808.00;5033788;28;20197;-84
2022/05/04 01:35:46;;;;;;;23.40;14.27;;;;;;;5.66;100.00;94832.19;5021150;28;20195;-84
2022/05/04 01:38:15;;;;;;;26.40;14.43;;;;;;;5.76;100.00;94831.91;5025661;28;20201;-84
2022/05/04 01:40:42;;;;;;;23.87;14.67;;;;;;;5.92;100.00;94831.66;5020805;28;20210;-82
2022/05/04 01:43:09;;;;;;;25.67;14.93;;;;;;;6.01;100.00;94838.31;5024743;28;20199;-83
2022/05/04 01:45:35;;;;;;;31.17;18.57;;;;;;;6.11;100.00;94841.38;5032187;28;20229;-84
2022/05/04 01:48:02;;;;;;;27.07;16.20;;;;;;;6.19;100.00;94841.25;5023204;28;20200;-84
2022/05/04 01:50:29;;;;;;;27.67;16.07;;;;;;;6.26;100.00;94829.22;5016424;28;20210;-83
2022/05/04 01:52:56;;;;;;;24.97;14.03;;;;;;;6.32;100.00;94836.16;5025081;28;20197;-83
2022/05/04 01:55:27;;;;;;;24.77;14.43;;;;;;;6.35;100.00;94833.22;5019713;28;20652;-82
2022/05/04 01:57:54;;;;;;;25.30;14.57;;;;;;;6.35;100.00;94827.28;5021262;28;20279;-83
2022/05/04 02:00:22;;;;;;;25.00;15.23;;;;;;;6.38;100.00;94819.16;5022949;28;20205;-81
2022/05/04 02:02:56;;;;;;;26.50;14.83;;;;;;;6.47;100.00;94829.13;5031408;28;20974;-82
2022/05/04 02:05:23;;;;;;;25.30;14.50;;;;;;;6.48;100.00;94833.34;5025977;28;20230;-82
2022/05/04 02:07:50;;;;;;;26.70;13.50;;;;;;;6.48;100.00;94830.75;5025776;28;20212;-82
2022/05/04 02:10:17;;;;;;;20.93;12.50;;;;;;;6.45;100.00;94823.38;5032698;28;20217;-82
2022/05/04 02:12:46;;;;;;;19.77;13.60;;;;;;;6.46;100.00;94830.16;5032741;28;20195;-83
2022/05/04 02:15:13;;;;;;;22.13;12.43;;;;;;;6.39;100.00;94818.16;5027246;28;20195;-83
2022/05/04 02:17:40;;;;;;;16.33;10.70;;;;;;;6.33;100.00;94816.31;5018383;28;20580;-82
2022/05/04 02:20:08;;;;;;;17.70;11.27;;;;;;;6.32;100.00;94817.34;5032124;28;20210;-83
2022/05/04 02:22:35;;;;;;;17.37;11.93;;;;;;;6.38;100.00;94829.50;5022132;28;20272;-83
2022/05/04 02:25:02;;;;;;;21.67;13.07;;;;;;;6.33;100.00;94827.47;5019301;28;20610;-84
2022/05/04 02:27:29;;;;;;;20.57;11.97;;;;;;;6.23;100.00;94827.78;5030505;28;20281;-83
2022/05/04 02:29:57;;;;;;;17.33;10.43;;;;;;;6.27;100.00;94829.00;5029121;28;20213;-83
2022/05/04 02:32:24;;;;;;;21.30;11.60;;;;;;;6.20;100.00;94827.38;5029785;28;20231;-82
2022/05/04 02:40:20;;;;;;;25.03;10.70;;;;;;;6.23;100.00;94824.41;5015525;28;20249;-81
2022/05/04 02:42:47;;;;;;;22.53;12.13;;;;;;;6.18;100.00;94827.53;5017149;28;20221;-82
2022/05/04 02:45:15;;;;;;;21.83;12.03;;;;;;;6.25;100.00;94827.59;5013148;28;20401;-83
2022/05/04 02:47:42;;;;;;;25.63;14.73;;;;;;;6.05;100.00;94831.81;5021701;28;20203;-83
2022/05/04 02:50:09;;;;;;;38.20;20.30;;;;;;;5.67;100.00;94829.44;5025748;28;20704;-83
2022/05/04 02:52:36;;;;;;;36.17;21.10;;;;;;;5.26;100.00;94830.97;5028185;28;20203;-83
2022/05/04 02:55:03;;;;;;;41.93;21.93;;;;;;;5.22;100.00;94834.91;5031812;28;20274;-82
2022/05/04 02:57:30;;;;;;;37.30;20.53;;;;;;;5.35;100.00;94839.38;5012507;28;20224;-83
2022/05/04 02:59:57;;;;;;;42.50;23.33;;;;;;;5.46;100.00;94844.88;5028001;28;20209;-82
2022/05/04 03:02:27;;;;;;;47.83;26.37;;;;;;;5.57;100.00;94846.97;5026493;28;20252;-82
2022/05/04 03:04:54;;;;;;;56.17;26.77;;;;;;;5.70;100.00;94852.28;5013966;28;20356;-82
2022/05/04 03:07:21;;;;;;;44.07;23.37;;;;;;;5.74;100.00;94855.28;5020945;28;20202;-84
2022/05/04 03:09:48;;;;;;;41.07;24.47;;;;;;;5.81;100.00;94856.16;5029897;28;20213;-83
2022/05/04 03:12:15;;;;;;;51.53;27.57;;;;;;;5.81;100.00;94865.66;5013571;28;20573;-84
2022/05/04 03:14:49;;;;;;;56.57;30.90;;;;;;;5.82;100.00;94875.00;5024906;28;20198;-83
2022/05/04 03:17:17;;;;;;;58.97;31.03;;;;;;;5.84;100.00;94868.66;5027415;28;20233;-83
2022/05/04 03:19:45;;;;;;;55.80;31.30;;;;;;;5.91;100.00;94872.16;5024695;28;20211;-83
2022/05/04 03:22:12;;;;;;;58.33;30.10;;;;;;;5.97;100.00;94875.78;5019130;28;20234;-82
2022/05/04 03:24:39;;;;;;;51.73;29.03;;;;;;;5.96;100.00;94867.25;5025449;28;20229;-83
2022/05/04 03:27:07;;;;;;;48.83;29.33;;;;;;;5.96;100.00;94871.59;5028890;28;20738;-82
2022/05/04 03:29:34;;;;;;;49.53;27.43;;;;;;;5.88;100.00;94857.06;5023259;28;20213;-83
2022/05/04 03:32:01;;;;;;;42.63;21.40;;;;;;;5.82;100.00;94855.19;5023445;28;20642;-84
2022/05/04 03:34:28;;;;;;;26.80;16.50;;;;;;;5.88;100.00;94874.31;5020725;28;20198;-71
2022/05/04 03:36:58;;;;;;;27.13;17.03;;;;;;;5.94;100.00;94873.56;5021388;28;20256;-71
2022/05/04 03:39:25;;;;;;;29.13;17.37;;;;;;;6.00;100.00;94885.72;5016164;28;20213;-71
2022/05/04 03:41:52;;;;;;;24.27;16.70;;;;;;;6.02;100.00;94878.59;5017928;28;20195;-71
2022/05/04 03:44:18;;;;;;;23.07;15.70;;;;;;;6.05;100.00;94881.63;5021870;28;20201;-71
2022/05/04 03:46:47;;;;;;;26.90;16.03;;;;;;;6.07;100.00;94882.22;5020218;28;20236;-71
2022/05/04 03:49:15;;;;;;;28.73;16.37;;;;;;;6.19;100.00;94890.25;5021515;28;20202;-71
2022/05/04 03:51:42;;;;;;;28.00;16.33;;;;;;;6.24;100.00;94883.56;5019701;28;20201;-71
2022/05/04 03:54:11;;;;;;;41.60;18.97;;;;;;;6.34;100.00;94883.25;5019386;28;20217;-71
2022/05/04 03:56:39;;;;;;;35.70;18.67;;;;;;;6.43;100.00;94882.16;5021720;28;20197;-71
2022/05/04 03:59:07;;;;;;;35.27;19.23;;;;;;;6.44;100.00;94883.72;5020270;28;20209;-71
2022/05/04 04:01:34;;;;;;;34.57;18.80;;;;;;;6.28;100.00;94884.00;5017073;28;20209;-73
2022/05/04 04:04:01;;;;;;;38.00;20.97;;;;;;;5.93;100.00;94885.66;5019213;28;20681;-72
2022/05/04 04:06:28;;;;;;;41.97;22.77;;;;;;;5.68;100.00;94881.81;5019439;28;20244;-72
2022/05/04 04:08:55;;;;;;;36.87;21.23;;;;;;;5.77;100.00;94890.22;5020888;28;20206;-73
2022/05/04 04:11:23;;;;;;;31.80;19.40;;;;;;;5.78;100.00;94890.03;5020497;28;20265;-73
2022/05/04 04:13:50;;;;;;;31.67;18.47;;;;;;;5.93;100.00;94895.97;5019414;28;20198;-73
2022/05/04 04:16:17;;;;;;;22.60;14.13;;;;;;;6.05;100.00;94899.66;5017236;28;20203;-71
2022/05/04 04:18:44;;;;;;;17.57;11.77;;;;;;;6.16;100.00;94908.69;5019849;28;20219;-72
2022/05/04 04:23:56;;;;;;;17.03;9.60;;;;;;;6.29;100.00;94903.66;5018936;28;20291;-72
2022/05/04 04:26:24;;;;;;;13.07;9.43;;;;;;;6.38;100.00;94901.75;5020340;28;20230;-71
2022/05/04 04:28:51;;;;;;;16.07;10.27;;;;;;;6.45;100.00;94908.56;5020634;28;20592;-72
2022/05/04 04:31:18;;;;;;;16.53;9.30;;;;;;;6.52;100.00;94913.78;5018088;28;20221;-71
2022/05/04 04:33:44;;;;;;;15.70;9.67;;;;;;;6.60;100.00;94916.22;5021855;28;20202;-78
2022/05/04 04:36:11;;;;;;;20.33;9.80;;;;;;;6.69;100.00;94915.91;5020395;28;20233;-72
2022/05/04 04:38:38;;;;;;;12.53;9.20;;;;;;;6.79;100.00;94926.69;5018540;28;20209;-71
2022/05/04 04:41:05;;;;;;;18.23;8.50;;;;;;;6.85;100.00;94928.53;5020833;28;20202;-72
2022/05/04 04:43:33;;;;;;;14.93;8.83;;;;;;;6.96;100.00;94929.00;5019268;28;20203;-72
2022/05/04 04:46:00;;;;;;;16.40;10.10;;;;;;;7.07;100.00;94931.84;5021443;28;20230;-74
2022/05/04 04:48:27;;;;;;;16.60;9.53;;;;;;;7.15;100.00;94928.34;5020060;28;20203;-71
2022/05/04 04:50:53;;;;;;;16.90;9.40;;;;;;;7.27;100.00;94925.00;5018631;28;20195;-72
2022/05/04 04:53:20;;;;;;;14.00;9.00;;;;;;;7.27;100.00;94924.22;5020773;28;20613;-72
2022/05/04 04:55:47;;;;;;;18.10;9.60;;;;;;;7.31;100.00;94921.06;5018995;28;20199;-71
2022/05/04 04:58:15;;;;;;;16.63;9.30;;;;;;;7.32;100.00;94924.44;5021475;28;20593;-72
2022/05/04 05:00:43;;;;;;;22.23;10.17;;;;;;;7.30;100.00;94916.88;5024153;28;20199;-72
2022/05/04 05:03:10;;;;;;;19.63;10.33;;;;;;;7.33;100.00;94923.47;5022544;28;20697;-71
2022/05/04 05:05:41;;;;;;;14.73;10.50;;;;;;;7.21;100.00;94925.00;5023827;28;20218;-71
2022/05/04 05:08:09;;;;;;;15.10;9.90;;;;;;;7.24;100.00;94922.03;5022557;28;20302;-72
2022/05/04 05:10:36;;;;;;;21.63;11.83;;;;;;;7.22;100.00;94926.56;5024782;28;20245;-71
2022/05/04 05:13:03;;;;;;;22.53;11.83;;;;;;;6.94;100.00;94929.19;5022615;28;20207;-71
2022/05/04 05:18:15;;;;;;;17.00;10.33;;;;;;;6.74;100.00;94923.91;5021186;28;20218;-72
2022/05/04 05:20:42;;;;;;;19.73;10.33;;;;;;;6.87;100.00;94925.75;5022686;28;20199;-76
2022/05/04 05:23:09;;;;;;;25.33;11.03;;;;;;;7.05;100.00;94931.25;5021413;28;20632;-76
2022/05/04 05:25:36;;;;;;;22.37;11.83;;;;;;;7.23;100.00;94934.16;5021480;28;20230;-71
2022/05/04 05:28:03;;;;;;;21.50;10.97;;;;;;;7.41;100.00;94936.25;5022624;28;20879;-71
2022/05/04 05:30:30;;;;;;;20.63;10.80;;;;;;;7.66;100.00;94928.78;5021132;28;20195;-71
2022/05/04 05:32:56;;;;;;;23.23;12.00;;;;;;;7.84;100.00;94932.44;5022597;28;20186;-72
2022/05/04 05:35:24;;;;;;;23.17;11.03;;;;;;;7.98;100.00;94935.88;5024541;28;20203;-71
2022/05/04 05:37:51;;;;;;;17.07;10.70;;;;;;;8.10;100.00;94941.28;5022905;28;20658;-71
2022/05/04 05:40:18;;;;;;;18.00;10.30;;;;;;;8.22;100.00;94932.75;5021360;28;20566;-71
2022/05/04 05:42:45;;;;;;;19.10;11.07;;;;;;;8.30;100.00;94939.56;5024704;28;20207;-71
2022/05/04 05:45:12;;;;;;;20.97;11.87;;;;;;;8.31;100.00;94943.75;5023320;28;20191;-72
2022/05/04 05:47:39;;;;;;;19.93;11.50;;;;;;;8.35;100.00;94932.78;5023644;28;20603;-72
2022/05/04 05:50:07;;;;;;;15.20;11.20;;;;;;;8.40;100.00;94934.78;5023569;28;20207;-71
2022/05/04 05:52:36;;;;;;;23.60;11.97;;;;;;;8.32;100.00;94933.19;5022443;28;20199;-72
2022/05/04 05:55:03;;;;;;;20.67;11.97;;;;;;;8.35;100.00;94925.03;5023448;28;20579;-73
2022/05/04 05:57:29;;;;;;;23.70;12.03;;;;;;;8.36;100.00;94928.41;5022566;28;20190;-74
2022/05/04 05:59:56;;;;;;;21.00;11.80;;;;;;;8.43;100.00;94939.56;5022193;28;20191;-73
2022/05/04 06:02:27;;;;;;;20.13;11.90;;;;;;;8.37;100.00;94922.22;5022516;28;20207;-74
2022/05/04 06:04:54;;;;;;;23.70;11.93;;;;;;;8.43;100.00;94924.03;5024471;28;20569;-73
2022/05/04 06:07:21;;;;;;;19.63;12.60;;;;;;;8.43;100.00;94934.38;5024465;28;20222;-75
2022/05/04 06:09:49;;;;;;;25.67;12.67;;;;;;;8.49;100.00;94931.81;5024670;28;20608;-73
2022/05/04 06:12:16;;;;;;;20.20;13.57;;;;;;;8.52;100.00;94930.63;5021645;28;20643;-75
2022/05/04 06:14:43;;;;;;;22.67;15.67;;;;;;;8.56;100.00;94937.00;5024658;28;20560;-73
2022/05/04 06:17:10;;;;;;;28.17;15.67;;;;;;;8.58;100.00;94940.19;5022389;28;20203;-74
2022/05/04 06:19:37;;;;;;;21.53;13.47;;;;;;;8.59;100.00;94941.00;5024540;28;20199;-75
2022/05/04 06:22:04;;;;;;;24.37;13.93;;;;;;;8.63;100.00;94942.97;5023318;28;20268;-73
2022/05/04 06:24:30;;;;;;;24.37;13.33;;;;;;;8.39;100.00;94943.56;5021239;28;20226;-72
2022/05/04 06:26:59;;;;;;;23.00;13.13;;;;;;;8.23;100.00;94938.72;5023257;28;20285;-72
2022/05/04 06:34:06;;;;;;;22.47;14.10;;;;;;;8.19;100.00;94930.56;5021852;28;20200;-78
2022/05/04 06:34:57;;;;;;;22.97;13.57;;;;;;;8.49;100.00;94925.81;5019236;28;20742;-77
2022/05/04 06:37:24;;;;;;;23.93;12.77;;;;;;;8.67;100.00;94928.63;5018767;28;20195;-77
2022/05/04 06:39:51;;;;;;;24.43;13.10;;;;;;;8.76;100.00;94917.09;5017336;28;20200;-78
2022/05/04 06:42:19;;;;;;;28.27;13.47;;;;;;;8.98;100.00;94931.41;5022599;28;20206;-77
2022/05/04 06:44:46;;;;;;;21.70;12.73;;;;;;;9.13;100.00;94934.59;5024588;28;20252;-79
2022/05/04 06:47:13;;;;;;;29.27;13.30;;;;;;;9.26;100.00;94941.56;5026845;28;20219;-78
2022/05/04 06:49:40;;;;;;;23.13;13.10;;;;;;;9.39;100.00;94932.94;5023830;28;20198;-77
2022/05/04 06:52:08;;;;;;;24.53;13.60;;;;;;;9.45;98.90;94925.16;5020718;28;20620;-77
2022/05/04 06:54:35;;;;;;;19.47;12.57;;;;;;;9.51;98.86;94928.72;5020914;28;20647;-77
2022/05/04 06:57:01;;;;;;;20.90;12.67;;;;;;;9.66;98.67;94934.47;5023047;28;20203;-77
2022/05/04 06:59:30;;;;;;;20.40;12.10;;;;;;;9.80;97.62;94938.59;5023279;28;20198;-77
2022/05/04 07:01:57;;;;;;;22.33;13.07;;;;;;;9.81;97.94;94927.22;5019819;28;20199;-78
2022/05/04 07:04:24;;;;;;;18.77;12.30;;;;;;;9.95;98.58;94938.34;5022189;28;20642;-77
2022/05/04 07:06:51;;;;;;;24.43;13.20;;;;;;;9.97;98.59;94939.72;5020085;28;20214;-78
2022/05/04 07:09:18;;;;;;;25.73;13.13;;;;;;;10.09;98.59;94932.88;5018637;28;20203;-77
2022/05/04 07:11:45;;;;;;;23.97;12.40;;;;;;;10.24;98.05;94935.25;5018750;28;20199;-78
2022/05/04 07:14:13;;;;;;;25.67;13.27;;;;;;;10.31;95.85;94935.19;5021057;28;20218;-78
2022/05/04 07:16:41;;;;;;;24.17;13.03;;;;;;;10.39;96.67;94938.31;5021058;28;20564;-78
2022/05/04 07:19:08;;;;;;;24.70;12.60;;;;;;;10.44;97.48;94929.91;5021611;28;20588;-77
2022/05/04 07:21:35;;;;;;;25.00;12.73;;;;;;;10.49;97.36;94919.69;5020145;28;20198;-79
2022/05/04 07:24:02;;;;;;;19.83;11.47;;;;;;;10.67;95.38;94928.34;5021679;28;20230;-78
2022/05/04 07:26:29;;;;;;;19.27;11.63;;;;;;;10.79;95.17;94931.84;5018751;28;20256;-80
2022/05/04 07:28:57;;;;;;;18.50;11.50;;;;;;;10.91;95.47;94934.56;5022073;28;20237;-78
2022/05/04 07:31:24;;;;;;;19.57;11.13;;;;;;;10.79;94.43;94925.88;5019622;28;20238;-79
2022/05/04 07:33:52;;;;;;;19.70;11.77;;;;;;;10.61;95.22;94926.59;5018067;28;20211;-78
2022/05/04 07:36:19;;;;;;;19.17;11.30;;;;;;;10.52;96.18;94930.47;5023903;28;20213;-77
2022/05/04 07:38:46;;;;;;;22.57;10.83;;;;;;;10.69;94.54;94930.72;5020650;28;20213;-77
2022/05/04 07:43:57;;;;;;;18.07;10.63;;;;;;;11.05;93.79;94925.66;5019453;28;20329;-78
2022/05/04 07:46:24;;;;;;;16.87;11.07;;;;;;;11.23;93.19;94924.84;5021675;28;20214;-82
2022/05/04 07:48:52;;;;;;;21.47;10.30;;;;;;;11.42;92.07;94915.28;5023938;28;20565;-84
2022/05/04 07:51:19;;;;;;;12.87;9.40;;;;;;;11.57;90.24;94932.13;5021783;28;20659;-79
2022/05/04 07:53:45;;;;;;;16.40;9.63;;;;;;;11.67;89.11;94923.81;5024508;28;20195;-79
2022/05/04 07:56:12;;;;;;;17.63;10.13;;;;;;;11.78;89.14;94926.50;5015526;28;20207;-81
2022/05/04 07:58:39;;;;;;;12.87;8.70;;;;;;;11.96;88.83;94933.50;5024451;28;20198;-82
2022/05/04 08:06:36;;;;;;;19.00;9.03;;;;;;;12.40;85.82;94929.72;5026121;28;20583;-82
2022/05/04 08:09:03;;;;;;;17.87;8.50;;;;;;;12.58;85.29;94929.69;5026194;28;20214;-81
2022/05/04 08:11:30;;;;;;;9.20;6.83;;;;;;;12.73;85.12;94927.44;5022941;28;20214;-82
2022/05/04 08:13:57;;;;;;;9.47;6.37;;;;;;;12.88;84.39;94927.78;5023125;28;20342;-80
2022/05/04 08:16:24;;;;;;;11.43;6.23;;;;;;;13.06;79.55;94929.50;5011933;28;20199;-81
2022/05/04 08:18:52;;;;;;;8.93;5.80;;;;;;;13.18;77.73;94926.94;5016413;28;20386;-77
2022/05/04 08:21:19;;;;;;;12.07;5.60;;;;;;;13.28;77.87;94922.72;5021260;28;20203;-77
2022/05/04 08:23:45;;;;;;;20.57;4.90;;;;;;;13.38;77.28;94919.56;5020699;28;20195;-77
2022/05/04 08:26:13;;;;;;;9.13;5.00;;;;;;;13.53;77.81;94919.91;5021132;28;20218;-77
2022/05/04 08:28:39;;;;;;;10.67;5.07;;;;;;;13.49;77.16;94916.94;5026143;28;20290;-78
2022/05/04 08:31:06;;;;;;;10.17;5.30;;;;;;;13.36;78.40;94925.00;5022235;28;20191;-78
2022/05/04 08:33:35;;;;;;;8.63;4.73;;;;;;;13.40;77.11;94925.34;5025572;28;20203;-77
2022/05/04 08:36:03;;;;;;;5.47;3.47;;;;;;;13.58;71.62;94931.25;5025643;28;20321;-77
2022/05/04 08:38:30;;;;;;;6.60;3.03;;;;;;;13.72;69.41;94928.38;5028634;28;20226;-77
2022/05/04 08:40:57;;;;;;;5.80;3.27;;;;;;;13.85;70.24;94925.53;5023834;28;20203;-77
2022/05/04 08:43:25;;;;;;;8.50;3.93;;;;;;;14.13;69.98;94933.38;5027809;28;20284;-77
2022/05/04 08:45:54;;;;;;;8.27;3.43;;;;;;;14.30;69.11;94929.00;5022899;28;20200;-79
2022/05/04 08:48:22;;;;;;;10.77;3.97;;;;;;;14.52;69.29;94926.53;5024161;28;20219;-78
2022/05/04 08:50:51;;;;;;;6.43;3.47;;;;;;;14.67;69.38;94934.66;5025100;28;20298;-78
2022/05/04 08:53:19;;;;;;;6.47;3.60;;;;;;;14.80;69.85;94926.50;5028811;28;20199;-77
2022/05/04 08:55:46;;;;;;;6.70;3.10;;;;;;;14.96;67.85;94932.75;5024491;28;20281;-77
2022/05/04 08:58:13;;;;;;;24.87;4.20;;;;;;;14.89;68.65;94925.06;5025051;28;20206;-78
2022/05/04 09:00:40;;;;;;;8.73;3.70;;;;;;;14.94;69.65;94926.97;5026489;28;20269;-76
2022/05/04 09:03:07;;;;;;;8.03;3.70;;;;;;;14.99;71.60;94924.44;5026397;28;20261;-76
2022/05/04 09:05:40;;;;;;;8.73;3.50;;;;;;;15.15;71.58;94926.28;5028689;28;20190;-76
2022/05/04 09:08:08;;;;;;;6.30;3.40;;;;;;;15.30;71.65;94921.25;5027536;28;20247;-76
2022/05/04 09:10:39;;;;;;;6.23;3.70;;;;;;;15.48;71.42;94925.44;5029827;28;20195;-76
2022/05/04 09:13:07;;;;;;;5.50;3.80;;;;;;;15.59;71.13;94917.50;5024547;28;20199;-76
2022/05/04 09:15:35;;;;;;;8.03;3.83;;;;;;;15.74;69.71;94917.69;5024381;28;20298;-76
2022/05/04 09:18:06;;;;;;;8.30;4.17;;;;;;;15.70;70.04;94916.59;5027240;28;20199;-76
2022/05/04 09:20:47;;;;;;;7.30;4.33;;;;;;;15.73;70.55;94921.34;5027144;28;20329;-76
2022/05/04 09:23:17;;;;;;;6.50;4.07;;;;;;;15.81;68.84;94922.75;5025668;28;20194;-77
2022/05/04 09:25:45;;;;;;;5.53;3.60;;;;;;;16.01;67.04;94916.97;5026879;28;20215;-77
2022/05/04 09:28:14;;;;;;;6.90;3.37;;;;;;;16.14;67.03;94920.00;5024474;28;20233;-75
2022/05/04 09:30:45;;;;;;;3.23;2.77;;;;;;;16.28;63.99;94915.16;5020306;28;20195;-87
2022/05/04 09:33:13;;;;;;;9.80;3.00;;;;;;;16.34;64.35;94895.81;5022445;28;20281;-79
2022/05/04 09:35:41;;;;;;;6.90;3.30;;;;;;;16.34;66.51;94914.97;5023960;28;20227;-79
2022/05/04 09:46:38;;;;;;;5.30;3.00;;;;;;;16.91;62.34;94899.50;5020443;28;20225;-79
2022/05/04 09:49:16;;;;;;;4.17;2.87;;;;;;;17.31;61.30;94896.41;5023286;28;20204;-80
2022/05/04 09:51:48;;;;;;;5.53;2.93;;;;;;;17.56;60.49;94872.13;5023657;28;20202;-79
2022/05/04 09:54:20;;;;;;;4.27;2.93;;;;;;;17.89;58.89;94890.13;5027990;28;20198;-80
2022/05/04 09:56:50;;;;;;;8.57;2.90;;;;;;;18.14;57.42;94882.34;5025406;28;20199;-82
2022/05/04 09:59:19;;;;;;;4.23;2.37;;;;;;;18.28;57.08;94871.31;5028424;28;20234;-82
2022/05/04 10:01:47;;;;;;;7.63;3.07;;;;;;;18.52;59.57;94873.25;5025744;28;20243;-81
2022/05/04 10:04:15;;;;;;;5.83;2.60;;;;;;;18.76;57.32;94870.88;5027647;28;20245;-80
2022/05/04 10:06:43;;;;;;;10.52;2.90;;;;;;;18.98;54.96;94865.38;5021541;28;20215;-82
2022/05/04 10:09:10;;;;;;;4.72;2.78;;;;;;;19.05;54.56;94868.50;5025237;28;20195;-81
2022/05/04 10:11:37;;;;;;;4.18;2.90;;;;;;;19.17;55.37;94872.44;5025484;28;20203;-81
2022/05/04 10:14:10;;;;;;;5.07;2.70;;;;;;;19.42;55.03;94868.25;5026499;28;20206;-86
2022/05/04 10:16:42;;;;;;;2.50;2.30;;;;;;;19.71;54.28;94856.78;5027831;28;20226;-81
2022/05/04 10:19:17;;;;;;;3.15;2.75;;;;;;;19.77;53.21;94854.91;5029900;28;20206;-81
2022/05/04 10:21:44;;;;;;;5.65;2.60;;;;;;;19.91;52.46;94842.75;5027924;28;20199;-81
2022/05/04 10:24:13;;;;;;;5.18;2.70;;;;;;;20.19;53.77;94851.84;5030516;28;20349;-83
2022/05/04 10:26:40;;;;;;;3.03;2.60;;;;;;;20.30;50.38;94843.63;5026467;28;20213;-81
2022/05/04 10:32:28;;;;;;;5.60;2.65;;;;;;;20.22;50.69;94841.53;5024551;28;20305;-81
2022/05/04 10:35:21;;;;;;;3.38;3.05;;;;;;;20.19;51.44;94836.00;5028528;28;20222;-82
2022/05/04 10:38:01;;;;;;;11.82;7.35;;;;;;;20.04;50.53;94842.16;5023828;28;20191;-83
2022/05/04 10:40:32;;;;;;;3.63;2.95;;;;;;;19.80;50.02;94835.91;5032655;28;20232;-83
2022/05/04 10:43:01;;;;;;;6.18;3.75;;;;;;;19.66;51.07;94837.56;5028979;28;20214;-83
2022/05/04 10:45:32;;;;;;;6.07;3.00;;;;;;;18.96;52.25;94835.88;5029705;28;20213;-82
2022/05/04 10:48:14;;;;;;;3.78;3.05;;;;;;;18.34;53.20;94834.25;5027133;28;21211;-83
2022/05/04 10:50:53;;;;;;;4.70;2.80;;;;;;;18.23;52.84;94832.66;5025646;28;20241;-81
2022/05/04 10:53:37;;;;;;;4.73;2.87;;;;;;;18.33;54.04;94831.84;5021703;28;20286;-81
2022/05/04 10:56:07;;;;;;;6.40;3.28;;;;;;;18.49;52.26;94817.69;5025741;28;20681;-81
2022/05/04 10:58:40;;;;;;;8.20;4.18;;;;;;;18.74;51.50;94820.31;5030385;28;20221;-81
2022/05/04 11:01:14;;;;;;;7.88;3.83;;;;;;;18.83;51.83;94817.94;5024383;28;20198;-81
2022/05/04 11:03:55;;;;;;;6.32;3.63;;;;;;;19.10;52.10;94813.19;5026915;28;20551;-81
2022/05/04 11:06:24;;;;;;;6.13;2.67;;;;;;;19.35;49.16;94807.06;5023059;28;20198;-82
2022/05/04 11:08:52;;;;;;;5.28;2.88;;;;;;;19.53;49.95;94806.50;5022698;28;20214;-81
2022/05/04 11:11:22;;;;;;;5.90;2.80;;;;;;;19.58;49.93;94809.91;5027419;28;20604;-81
2022/05/04 11:13:49;;;;;;;4.63;2.80;;;;;;;19.49;49.68;94810.72;5026131;28;20198;-81
2022/05/04 11:16:17;;;;;;;3.00;2.70;;;;;;;19.35;50.86;94807.06;5026901;28;20257;-78
2022/05/04 11:18:53;;;;;;;7.43;2.85;;;;;;;19.13;51.73;94802.13;5105706;27;20547;-81
2022/05/04 11:21:28;;;;;;;8.93;3.08;;;;;;;18.92;53.33;94793.44;5106625;28;20204;-81
2022/05/04 11:23:57;;;;;;;3.95;2.55;;;;;;;18.78;54.11;94789.00;5106449;28;20192;-81
2022/05/04 11:26:25;;;;;;;3.25;2.75;;;;;;;19.37;52.48;94795.19;5106571;28;20253;-81
2022/05/04 11:28:54;;;;;;;3.90;2.97;;;;;;;20.22;48.94;94799.28;5105921;28;20659;-82
2022/05/04 11:31:22;;;;;;;6.13;2.80;;;;;;;20.68;47.32;94805.06;5106034;28;20196;-81
2022/05/04 11:33:50;;;;;;;3.33;2.40;;;;;;;20.65;46.41;94805.59;5105886;28;20203;-82
2022/05/04 11:36:20;;;;;;;6.97;3.00;;;;;;;20.65;45.80;94802.97;5105544;28;20192;-81
2022/05/04 11:38:48;;;;;;;3.33;2.75;;;;;;;20.53;47.70;94814.94;5105583;28;20663;-82
2022/05/04 11:41:16;;;;;;;4.95;2.92;;;;;;;19.86;48.41;94811.09;5106155;28;20200;-81
2022/05/04 11:43:43;;;;;;;5.68;2.75;;;;;;;19.27;48.89;94801.28;5105328;28;20196;-81
2022/05/04 11:46:11;;;;;;;3.65;2.50;;;;;;;19.22;48.58;94796.00;5104589;28;20678;-81
2022/05/04 11:48:42;;;;;;;4.78;2.70;;;;;;;19.73;49.69;94795.88;5104263;28;20190;-81
2022/05/04 11:51:10;;;;;;;3.60;2.65;;;;;;;20.51;47.78;94788.81;5105650;28;21037;-84
2022/05/04 11:53:38;;;;;;;8.20;2.60;;;;;;;20.88;46.10;94788.22;5104795;28;20616;-82
2022/05/04 11:56:07;;;;;;;7.05;2.58;;;;;;;21.04;45.28;94794.94;5104917;28;20204;-82
2022/05/04 11:58:35;;;;;;;7.40;3.05;;;;;;;20.66;48.03;94788.69;5105340;28;20721;-81
2022/05/04 12:01:06;;;;;;;4.65;2.72;;;;;;;20.37;46.17;94787.88;5106230;28;20204;-82
2022/05/04 12:03:35;;;;;;;3.70;2.70;;;;;;;20.35;46.75;94780.22;5103859;28;20198;-82